sensor_id;sensor_type;location;lat;lon;timestamp;temperature;humidity
10453;DHT22;5274;51.992;8.518;2022-09-29T00:00:11;7.10;99.90
10453;DHT22;5274;51.992;8.518;2022-09-29T00:02:37;7.20;99.90
10453;DHT22;5274;51.992;8.518;2022-09-29T00:05:03;7.10;99.90
10453;DHT22;5274;51.992;8.518;2022-09-29T00:07:29;7.20;99.90
10453;DHT22;5274;51.992;8.518;2022-09-29T00:09:56;7.20;99.90
10453;DHT22;5274;51.992;8.518;2022-09-29T00:12:22;7.20;99.90
10453;DHT22;5274;51.992;8.518;2022-09-29T00:14:47;7.20;99.90
10453;DHT22;5274;51.992;8.518;2022-09-29T00:17:13;7.10;99.90
10453;DHT22;5274;51.992;8.518;2022-09-29T00:19:39;7.10;99.90
10453;DHT22;5274;51.992;8.518;2022-09-29T00:22:05;7.10;99.90
10453;DHT22;5274;51.992;8.518;2022-09-29T00:24:30;7.10;99.90
10453;DHT22;5274;51.992;8.518;2022-09-29T00:26:56;7.10;99.90
10453;DHT22;5274;51.992;8.518;2022-09-29T00:29:22;7.10;99.90
10453;DHT22;5274;51.992;8.518;2022-09-29T00:31:47;7.20;99.90
10453;DHT22;5274;51.992;8.518;2022-09-29T00:34:13;7.20;99.90
10453;DHT22;5274;51.992;8.518;2022-09-29T00:36:38;7.10;99.90
10453;DHT22;5274;51.992;8.518;2022-09-29T00:39:04;7.10;99.90
10453;DHT22;5274;51.992;8.518;2022-09-29T00:41:35;7.10;99.90
10453;DHT22;5274;51.992;8.518;2022-09-29T00:44:03;7.10;99.90
10453;DHT22;5274;51.992;8.518;2022-09-29T00:47:00;7.00;99.90
10453;DHT22;5274;51.992;8.518;2022-09-29T00:50:08;6.90;99.90
10453;DHT22;5274;51.992;8.518;2022-09-29T00:52:42;6.90;99.90
10453;DHT22;5274;51.992;8.518;2022-09-29T00:55:22;6.80;99.90
10453;DHT22;5274;51.992;8.518;2022-09-29T00:57:57;6.70;99.90
10453;DHT22;5274;51.992;8.518;2022-09-29T01:00:24;6.70;99.90
10453;DHT22;5274;51.992;8.518;2022-09-29T01:03:07;6.60;99.90
10453;DHT22;5274;51.992;8.518;2022-09-29T01:05:38;6.50;99.90
10453;DHT22;5274;51.992;8.518;2022-09-29T01:08:21;6.50;99.90
10453;DHT22;5274;51.992;8.518;2022-09-29T01:10:50;6.40;99.90
10453;DHT22;5274;51.992;8.518;2022-09-29T01:13:17;6.40;99.90
10453;DHT22;5274;51.992;8.518;2022-09-29T01:15:43;6.40;99.90
10453;DHT22;5274;51.992;8.518;2022-09-29T01:18:08;6.40;99.90
10453;DHT22;5274;51.992;8.518;2022-09-29T01:20:40;6.40;99.90
10453;DHT22;5274;51.992;8.518;2022-09-29T01:23:36;6.30;99.90
10453;DHT22;5274;51.992;8.518;2022-09-29T01:34:22;6.30;99.90
10453;DHT22;5274;51.992;8.518;2022-09-29T01:37:23;6.30;99.90
10453;DHT22;5274;51.992;8.518;2022-09-29T01:40:13;6.30;99.90
10453;DHT22;5274;51.992;8.518;2022-09-29T01:42:53;6.30;99.90
10453;DHT22;5274;51.992;8.518;2022-09-29T01:45:29;6.20;99.90
10453;DHT22;5274;51.992;8.518;2022-09-29T01:48:04;6.20;99.90
10453;DHT22;5274;51.992;8.518;2022-09-29T01:50:38;6.10;99.90
10453;DHT22;5274;51.992;8.518;2022-09-29T01:53:32;6.00;99.90
10453;DHT22;5274;51.992;8.518;2022-09-29T01:56:04;6.00;99.90
10453;DHT22;5274;51.992;8.518;2022-09-29T01:58:43;5.90;99.90
10453;DHT22;5274;51.992;8.518;2022-09-29T02:01:13;5.90;99.90
10453;DHT22;5274;51.992;8.518;2022-09-29T02:06:52;5.80;99.90
10453;DHT22;5274;51.992;8.518;2022-09-29T02:09:23;5.70;99.90
10453;DHT22;5274;51.992;8.518;2022-09-29T02:11:51;5.70;99.90
10453;DHT22;5274;51.992;8.518;2022-09-29T02:14:28;5.60;99.90
10453;DHT22;5274;51.992;8.518;2022-09-29T02:17:09;5.60;99.90
10453;DHT22;5274;51.992;8.518;2022-09-29T02:19:39;5.60;99.90
10453;DHT22;5274;51.992;8.518;2022-09-29T02:22:06;5.60;99.90
10453;DHT22;5274;51.992;8.518;2022-09-29T02:24:32;5.60;99.90
10453;DHT22;5274;51.992;8.518;2022-09-29T02:26:58;5.60;99.90
10453;DHT22;5274;51.992;8.518;2022-09-29T02:29:23;5.60;99.90
10453;DHT22;5274;51.992;8.518;2022-09-29T02:31:49;5.50;99.90
10453;DHT22;5274;51.992;8.518;2022-09-29T02:34:17;5.50;99.90
10453;DHT22;5274;51.992;8.518;2022-09-29T02:48:14;5.30;99.90
10453;DHT22;5274;51.992;8.518;2022-09-29T02:56:22;5.30;99.90
10453;DHT22;5274;51.992;8.518;2022-09-29T03:01:30;5.30;99.90
10453;DHT22;5274;51.992;8.518;2022-09-29T03:03:56;5.30;99.90
10453;DHT22;5274;51.992;8.518;2022-09-29T03:06:22;5.30;99.90
10453;DHT22;5274;51.992;8.518;2022-09-29T03:08:47;5.20;99.90
10453;DHT22;5274;51.992;8.518;2022-09-29T03:11:13;5.20;99.90
10453;DHT22;5274;51.992;8.518;2022-09-29T03:13:38;5.20;99.90
10453;DHT22;5274;51.992;8.518;2022-09-29T03:16:04;5.20;99.90
10453;DHT22;5274;51.992;8.518;2022-09-29T03:18:29;5.20;99.90
10453;DHT22;5274;51.992;8.518;2022-09-29T03:20:55;5.20;99.90
10453;DHT22;5274;51.992;8.518;2022-09-29T03:23:20;5.10;99.90
10453;DHT22;5274;51.992;8.518;2022-09-29T03:25:46;5.20;99.90
10453;DHT22;5274;51.992;8.518;2022-09-29T03:28:12;5.10;99.90
10453;DHT22;5274;51.992;8.518;2022-09-29T03:30:37;5.10;99.90
10453;DHT22;5274;51.992;8.518;2022-09-29T03:33:03;5.10;99.90
10453;DHT22;5274;51.992;8.518;2022-09-29T03:35:29;5.10;99.90
10453;DHT22;5274;51.992;8.518;2022-09-29T03:38:00;5.00;99.90
10453;DHT22;5274;51.992;8.518;2022-09-29T03:40:26;5.00;99.90
10453;DHT22;5274;51.992;8.518;2022-09-29T03:42:52;5.00;99.90
10453;DHT22;5274;51.992;8.518;2022-09-29T03:45:17;5.00;99.90
10453;DHT22;5274;51.992;8.518;2022-09-29T03:47:43;4.90;99.90
10453;DHT22;5274;51.992;8.518;2022-09-29T03:50:09;4.90;99.90
10453;DHT22;5274;51.992;8.518;2022-09-29T03:52:34;4.90;99.90
10453;DHT22;5274;51.992;8.518;2022-09-29T03:55:00;4.90;99.90
10453;DHT22;5274;51.992;8.518;2022-09-29T03:57:26;5.00;99.90
10453;DHT22;5274;51.992;8.518;2022-09-29T03:59:51;4.90;99.90
10453;DHT22;5274;51.992;8.518;2022-09-29T04:02:18;4.90;99.90
10453;DHT22;5274;51.992;8.518;2022-09-29T04:04:44;4.90;99.90
10453;DHT22;5274;51.992;8.518;2022-09-29T04:07:10;4.90;99.90
10453;DHT22;5274;51.992;8.518;2022-09-29T04:09:35;4.90;99.90
10453;DHT22;5274;51.992;8.518;2022-09-29T04:12:01;4.90;99.90
10453;DHT22;5274;51.992;8.518;2022-09-29T04:14:26;4.80;99.90
10453;DHT22;5274;51.992;8.518;2022-09-29T04:16:52;4.90;99.90
10453;DHT22;5274;51.992;8.518;2022-09-29T04:19:17;4.90;99.90
10453;DHT22;5274;51.992;8.518;2022-09-29T04:21:43;5.00;99.90
10453;DHT22;5274;51.992;8.518;2022-09-29T04:24:08;4.90;99.90
10453;DHT22;5274;51.992;8.518;2022-09-29T04:26:34;4.90;99.90
10453;DHT22;5274;51.992;8.518;2022-09-29T04:28:59;4.90;99.90
10453;DHT22;5274;51.992;8.518;2022-09-29T04:31:25;4.90;99.90
10453;DHT22;5274;51.992;8.518;2022-09-29T04:33:50;4.90;99.90
10453;DHT22;5274;51.992;8.518;2022-09-29T04:36:16;4.90;99.90
10453;DHT22;5274;51.992;8.518;2022-09-29T04:38:42;5.00;99.90
10453;DHT22;5274;51.992;8.518;2022-09-29T04:41:07;5.00;99.90
10453;DHT22;5274;51.992;8.518;2022-09-29T04:43:33;5.00;99.90
10453;DHT22;5274;51.992;8.518;2022-09-29T04:46:03;5.00;99.90
10453;DHT22;5274;51.992;8.518;2022-09-29T04:48:29;5.00;99.90
10453;DHT22;5274;51.992;8.518;2022-09-29T04:50:55;4.90;99.90
10453;DHT22;5274;51.992;8.518;2022-09-29T04:53:20;4.90;99.90
10453;DHT22;5274;51.992;8.518;2022-09-29T04:55:46;4.90;99.90
10453;DHT22;5274;51.992;8.518;2022-09-29T04:58:12;4.90;99.90
10453;DHT22;5274;51.992;8.518;2022-09-29T05:00:39;4.90;99.90
10453;DHT22;5274;51.992;8.518;2022-09-29T05:03:04;4.90;99.90
10453;DHT22;5274;51.992;8.518;2022-09-29T05:05:30;5.00;99.90
10453;DHT22;5274;51.992;8.518;2022-09-29T05:07:55;5.00;99.90
10453;DHT22;5274;51.992;8.518;2022-09-29T05:10:21;5.10;99.90
10453;DHT22;5274;51.992;8.518;2022-09-29T05:12:48;5.20;99.90
10453;DHT22;5274;51.992;8.518;2022-09-29T05:15:14;5.20;99.90
10453;DHT22;5274;51.992;8.518;2022-09-29T05:17:40;5.30;99.90
10453;DHT22;5274;51.992;8.518;2022-09-29T05:20:06;5.30;99.90
10453;DHT22;5274;51.992;8.518;2022-09-29T05:22:31;5.30;99.90
10453;DHT22;5274;51.992;8.518;2022-09-29T05:24:57;5.40;99.90
10453;DHT22;5274;51.992;8.518;2022-09-29T05:27:22;5.50;99.90
10453;DHT22;5274;51.992;8.518;2022-09-29T05:29:48;5.50;99.90
10453;DHT22;5274;51.992;8.518;2022-09-29T05:32:14;5.60;99.90
10453;DHT22;5274;51.992;8.518;2022-09-29T05:34:39;5.60;99.90
10453;DHT22;5274;51.992;8.518;2022-09-29T05:37:05;5.60;99.90
10453;DHT22;5274;51.992;8.518;2022-09-29T05:39:30;5.60;99.90
10453;DHT22;5274;51.992;8.518;2022-09-29T05:42:05;5.60;99.90
10453;DHT22;5274;51.992;8.518;2022-09-29T05:44:31;5.70;99.90
10453;DHT22;5274;51.992;8.518;2022-09-29T05:46:58;5.80;99.90
10453;DHT22;5274;51.992;8.518;2022-09-29T05:49:23;5.80;99.90
10453;DHT22;5274;51.992;8.518;2022-09-29T05:51:49;5.90;99.90
10453;DHT22;5274;51.992;8.518;2022-09-29T05:54:15;5.90;99.90
10453;DHT22;5274;51.992;8.518;2022-09-29T05:56:40;5.90;99.90
10453;DHT22;5274;51.992;8.518;2022-09-29T05:59:07;5.90;99.90
10453;DHT22;5274;51.992;8.518;2022-09-29T06:01:33;5.90;99.90
10453;DHT22;5274;51.992;8.518;2022-09-29T06:03:59;5.90;99.90
10453;DHT22;5274;51.992;8.518;2022-09-29T06:06:26;5.90;99.90
10453;DHT22;5274;51.992;8.518;2022-09-29T06:08:52;5.90;99.90
10453;DHT22;5274;51.992;8.518;2022-09-29T06:11:21;5.90;99.90
10453;DHT22;5274;51.992;8.518;2022-09-29T06:13:49;5.90;99.90
10453;DHT22;5274;51.992;8.518;2022-09-29T06:16:16;5.90;99.90
10453;DHT22;5274;51.992;8.518;2022-09-29T06:18:44;5.90;99.90
10453;DHT22;5274;51.992;8.518;2022-09-29T06:21:12;5.90;99.90
10453;DHT22;5274;51.992;8.518;2022-09-29T06:23:38;6.00;99.90
10453;DHT22;5274;51.992;8.518;2022-09-29T06:26:06;6.00;99.90
10453;DHT22;5274;51.992;8.518;2022-09-29T06:28:32;6.10;99.90
10453;DHT22;5274;51.992;8.518;2022-09-29T06:31:06;6.20;99.90
10453;DHT22;5274;51.992;8.518;2022-09-29T06:33:33;6.30;99.90
10453;DHT22;5274;51.992;8.518;2022-09-29T06:36:02;6.30;99.90
10453;DHT22;5274;51.992;8.518;2022-09-29T06:38:47;6.40;99.90
10453;DHT22;5274;51.992;8.518;2022-09-29T06:41:13;6.50;99.90
10453;DHT22;5274;51.992;8.518;2022-09-29T06:43:38;6.50;99.90
10453;DHT22;5274;51.992;8.518;2022-09-29T06:46:04;6.50;99.90
10453;DHT22;5274;51.992;8.518;2022-09-29T06:48:30;6.50;99.90
10453;DHT22;5274;51.992;8.518;2022-09-29T06:50:55;6.50;99.90
10453;DHT22;5274;51.992;8.518;2022-09-29T06:53:22;6.50;99.90
10453;DHT22;5274;51.992;8.518;2022-09-29T06:55:54;6.40;99.90
10453;DHT22;5274;51.992;8.518;2022-09-29T06:58:21;6.40;99.90
10453;DHT22;5274;51.992;8.518;2022-09-29T07:00:47;6.40;99.90
10453;DHT22;5274;51.992;8.518;2022-09-29T07:03:12;6.50;99.90
10453;DHT22;5274;51.992;8.518;2022-09-29T07:05:38;6.50;99.90
10453;DHT22;5274;51.992;8.518;2022-09-29T07:08:03;6.50;99.90
10453;DHT22;5274;51.992;8.518;2022-09-29T07:10:29;6.50;99.90
10453;DHT22;5274;51.992;8.518;2022-09-29T07:12:54;6.70;99.90
10453;DHT22;5274;51.992;8.518;2022-09-29T07:15:20;6.80;99.90
10453;DHT22;5274;51.992;8.518;2022-09-29T07:17:50;7.00;99.90
10453;DHT22;5274;51.992;8.518;2022-09-29T07:20:15;7.10;99.90
10453;DHT22;5274;51.992;8.518;2022-09-29T07:22:41;7.40;99.90
10453;DHT22;5274;51.992;8.518;2022-09-29T07:25:06;7.40;99.90
10453;DHT22;5274;51.992;8.518;2022-09-29T07:27:32;7.50;99.90
10453;DHT22;5274;51.992;8.518;2022-09-29T07:29:59;7.60;99.90
10453;DHT22;5274;51.992;8.518;2022-09-29T07:32:25;7.60;99.90
10453;DHT22;5274;51.992;8.518;2022-09-29T07:34:51;7.60;99.90
10453;DHT22;5274;51.992;8.518;2022-09-29T07:37:16;7.60;99.90
10453;DHT22;5274;51.992;8.518;2022-09-29T07:39:42;7.70;99.90
10453;DHT22;5274;51.992;8.518;2022-09-29T07:42:07;7.70;99.90
10453;DHT22;5274;51.992;8.518;2022-09-29T07:44:33;7.90;99.90
10453;DHT22;5274;51.992;8.518;2022-09-29T07:46:59;8.00;99.90
10453;DHT22;5274;51.992;8.518;2022-09-29T07:49:24;8.20;99.90
10453;DHT22;5274;51.992;8.518;2022-09-29T07:51:50;8.40;99.90
10453;DHT22;5274;51.992;8.518;2022-09-29T07:54:16;8.50;99.90
10453;DHT22;5274;51.992;8.518;2022-09-29T07:56:42;8.50;99.90
10453;DHT22;5274;51.992;8.518;2022-09-29T07:59:09;8.50;99.90
10453;DHT22;5274;51.992;8.518;2022-09-29T08:01:35;8.50;99.90
10453;DHT22;5274;51.992;8.518;2022-09-29T08:04:01;8.50;99.90
10453;DHT22;5274;51.992;8.518;2022-09-29T08:06:27;8.50;99.90
10453;DHT22;5274;51.992;8.518;2022-09-29T08:08:52;8.40;99.90
10453;DHT22;5274;51.992;8.518;2022-09-29T08:11:20;8.40;99.90
10453;DHT22;5274;51.992;8.518;2022-09-29T08:13:47;8.50;99.90
10453;DHT22;5274;51.992;8.518;2022-09-29T08:16:13;8.50;99.90
10453;DHT22;5274;51.992;8.518;2022-09-29T08:18:40;8.60;99.90
10453;DHT22;5274;51.992;8.518;2022-09-29T08:21:06;8.70;99.90
10453;DHT22;5274;51.992;8.518;2022-09-29T08:23:36;8.60;99.90
10453;DHT22;5274;51.992;8.518;2022-09-29T08:26:10;8.60;99.90
10453;DHT22;5274;51.992;8.518;2022-09-29T08:28:37;8.60;99.90
10453;DHT22;5274;51.992;8.518;2022-09-29T08:31:18;8.60;99.90
10453;DHT22;5274;51.992;8.518;2022-09-29T08:33:46;8.60;99.90
10453;DHT22;5274;51.992;8.518;2022-09-29T08:36:13;8.70;99.90
10453;DHT22;5274;51.992;8.518;2022-09-29T08:38:40;8.80;99.90
10453;DHT22;5274;51.992;8.518;2022-09-29T08:41:24;8.90;99.90
10453;DHT22;5274;51.992;8.518;2022-09-29T08:46:43;9.10;99.90
10453;DHT22;5274;51.992;8.518;2022-09-29T08:49:15;9.10;99.90
10453;DHT22;5274;51.992;8.518;2022-09-29T08:51:46;9.20;99.90
10453;DHT22;5274;51.992;8.518;2022-09-29T08:54:34;9.20;99.90
10453;DHT22;5274;51.992;8.518;2022-09-29T08:57:01;9.20;99.90
10453;DHT22;5274;51.992;8.518;2022-09-29T08:59:29;9.30;99.90
10453;DHT22;5274;51.992;8.518;2022-09-29T09:02:23;9.30;99.90
10453;DHT22;5274;51.992;8.518;2022-09-29T09:05:29;9.30;99.90
10453;DHT22;5274;51.992;8.518;2022-09-29T09:10:57;9.50;99.90
10453;DHT22;5274;51.992;8.518;2022-09-29T09:16:13;9.60;99.90
10453;DHT22;5274;51.992;8.518;2022-09-29T09:18:55;9.70;91.10
10453;DHT22;5274;51.992;8.518;2022-09-29T09:21:35;9.80;99.00
10453;DHT22;5274;51.992;8.518;2022-09-29T09:24:11;10.00;64.90
10453;DHT22;5274;51.992;8.518;2022-09-29T09:26:42;10.00;25.40
10453;DHT22;5274;51.992;8.518;2022-09-29T09:29:18;10.10;48.00
10453;DHT22;5274;51.992;8.518;2022-09-29T09:32:09;10.30;20.00
10453;DHT22;5274;51.992;8.518;2022-09-29T09:34:46;10.30;1.00
10453;DHT22;5274;51.992;8.518;2022-09-29T09:37:26;10.50;1.00
10453;DHT22;5274;51.992;8.518;2022-09-29T09:42:34;10.70;1.00
10453;DHT22;5274;51.992;8.518;2022-09-29T09:45:12;10.80;1.00
10453;DHT22;5274;51.992;8.518;2022-09-29T09:50:14;11.20;1.00
10453;DHT22;5274;51.992;8.518;2022-09-29T09:52:43;11.10;1.00
10453;DHT22;5274;51.992;8.518;2022-09-29T09:55:19;11.10;1.00
10453;DHT22;5274;51.992;8.518;2022-09-29T10:00:45;11.20;1.00
10453;DHT22;5274;51.992;8.518;2022-09-29T10:03:12;11.20;1.00
10453;DHT22;5274;51.992;8.518;2022-09-29T10:05:41;11.30;1.00
10453;DHT22;5274;51.992;8.518;2022-09-29T10:08:22;11.40;1.00
10453;DHT22;5274;51.992;8.518;2022-09-29T10:10:49;11.50;1.00
10453;DHT22;5274;51.992;8.518;2022-09-29T10:13:15;11.70;1.00
10453;DHT22;5274;51.992;8.518;2022-09-29T10:15:51;12.00;1.00
10453;DHT22;5274;51.992;8.518;2022-09-29T10:21:01;12.20;1.00
10453;DHT22;5274;51.992;8.518;2022-09-29T10:23:34;12.30;1.00
10453;DHT22;5274;51.992;8.518;2022-09-29T10:26:12;12.40;1.00
10453;DHT22;5274;51.992;8.518;2022-09-29T10:29:01;12.50;1.00
10453;DHT22;5274;51.992;8.518;2022-09-29T10:31:34;13.70;1.00
10453;DHT22;5274;51.992;8.518;2022-09-29T10:36:55;12.80;1.00
10453;DHT22;5274;51.992;8.518;2022-09-29T10:39:43;12.70;1.00
10453;DHT22;5274;51.992;8.518;2022-09-29T10:42:23;12.80;1.00
10453;DHT22;5274;51.992;8.518;2022-09-29T10:44:51;12.90;1.00
10453;DHT22;5274;51.992;8.518;2022-09-29T10:47:19;13.00;1.00
10453;DHT22;5274;51.992;8.518;2022-09-29T10:49:45;13.10;1.00
10453;DHT22;5274;51.992;8.518;2022-09-29T10:52:22;13.20;1.00
10453;DHT22;5274;51.992;8.518;2022-09-29T10:55:00;13.10;1.00
10453;DHT22;5274;51.992;8.518;2022-09-29T10:57:30;13.10;99.90
10453;DHT22;5274;51.992;8.518;2022-09-29T10:59:57;13.30;99.90
10453;DHT22;5274;51.992;8.518;2022-09-29T11:02:30;13.40;99.90
10453;DHT22;5274;51.992;8.518;2022-09-29T11:05:00;13.40;99.90
10453;DHT22;5274;51.992;8.518;2022-09-29T11:07:27;13.50;99.90
10453;DHT22;5274;51.992;8.518;2022-09-29T11:09:53;13.60;99.90
10453;DHT22;5274;51.992;8.518;2022-09-29T11:12:35;14.00;99.90
10453;DHT22;5274;51.992;8.518;2022-09-29T11:15:26;13.60;99.90
10453;DHT22;5274;51.992;8.518;2022-09-29T11:17:54;13.20;99.90
10453;DHT22;5274;51.992;8.518;2022-09-29T11:20:24;13.10;99.90
10453;DHT22;5274;51.992;8.518;2022-09-29T11:26:46;12.90;99.90
10453;DHT22;5274;51.992;8.518;2022-09-29T11:29:12;14.50;99.90
10453;DHT22;5274;51.992;8.518;2022-09-29T11:31:59;16.60;99.90
10453;DHT22;5274;51.992;8.518;2022-09-29T11:40:11;17.30;65.00
10453;DHT22;5274;51.992;8.518;2022-09-29T11:43:05;17.70;96.60
10453;DHT22;5274;51.992;8.518;2022-09-29T11:45:44;16.80;58.20
10453;DHT22;5274;51.992;8.518;2022-09-29T11:59:14;25.90;1.00
10453;DHT22;5274;51.992;8.518;2022-09-29T12:02:23;27.30;1.00
10453;DHT22;5274;51.992;8.518;2022-09-29T12:10:43;26.50;1.00
10453;DHT22;5274;51.992;8.518;2022-09-29T12:16:11;29.30;1.00
10453;DHT22;5274;51.992;8.518;2022-09-29T12:18:55;28.30;1.00
10453;DHT22;5274;51.992;8.518;2022-09-29T12:21:35;24.60;1.00
10453;DHT22;5274;51.992;8.518;2022-09-29T12:24:06;28.50;1.00
10453;DHT22;5274;51.992;8.518;2022-09-29T12:26:34;32.50;1.00
10453;DHT22;5274;51.992;8.518;2022-09-29T12:29:07;33.20;1.00
10453;DHT22;5274;51.992;8.518;2022-09-29T12:31:39;33.80;1.00
10453;DHT22;5274;51.992;8.518;2022-09-29T12:34:16;35.60;1.00
10453;DHT22;5274;51.992;8.518;2022-09-29T12:36:49;36.00;1.00
10453;DHT22;5274;51.992;8.518;2022-09-29T12:39:44;34.30;1.00
10453;DHT22;5274;51.992;8.518;2022-09-29T12:45:03;37.00;1.00
10453;DHT22;5274;51.992;8.518;2022-09-29T12:50:38;38.90;1.00
10453;DHT22;5274;51.992;8.518;2022-09-29T12:53:16;37.90;1.00
10453;DHT22;5274;51.992;8.518;2022-09-29T12:55:49;36.80;1.00
10453;DHT22;5274;51.992;8.518;2022-09-29T12:58:23;36.50;1.00
10453;DHT22;5274;51.992;8.518;2022-09-29T13:01:01;35.40;1.00
10453;DHT22;5274;51.992;8.518;2022-09-29T13:03:35;36.80;1.00
10453;DHT22;5274;51.992;8.518;2022-09-29T13:08:56;34.70;1.00
10453;DHT22;5274;51.992;8.518;2022-09-29T13:11:52;32.90;1.00
10453;DHT22;5274;51.992;8.518;2022-09-29T13:14:42;34.80;1.00
10453;DHT22;5274;51.992;8.518;2022-09-29T13:26:07;28.20;1.00
10453;DHT22;5274;51.992;8.518;2022-09-29T13:28:40;29.00;1.00
10453;DHT22;5274;51.992;8.518;2022-09-29T13:31:12;30.00;1.00
10453;DHT22;5274;51.992;8.518;2022-09-29T13:33:39;32.20;1.00
10453;DHT22;5274;51.992;8.518;2022-09-29T13:36:05;31.10;1.00
10453;DHT22;5274;51.992;8.518;2022-09-29T13:38:36;31.30;1.00
10453;DHT22;5274;51.992;8.518;2022-09-29T13:49:22;27.90;1.00
10453;DHT22;5274;51.992;8.518;2022-09-29T13:52:09;30.10;1.00
10453;DHT22;5274;51.992;8.518;2022-09-29T13:54:46;32.80;1.00
10453;DHT22;5274;51.992;8.518;2022-09-29T13:59:43;29.60;1.00
10453;DHT22;5274;51.992;8.518;2022-09-29T14:02:24;30.40;1.00
10453;DHT22;5274;51.992;8.518;2022-09-29T14:04:53;28.40;1.00
10453;DHT22;5274;51.992;8.518;2022-09-29T14:12:44;28.30;1.00
10453;DHT22;5274;51.992;8.518;2022-09-29T14:15:15;28.40;1.00
10453;DHT22;5274;51.992;8.518;2022-09-29T14:17:46;28.60;1.00
10453;DHT22;5274;51.992;8.518;2022-09-29T14:20:28;29.50;1.00
10453;DHT22;5274;51.992;8.518;2022-09-29T14:25:48;27.70;1.00
10453;DHT22;5274;51.992;8.518;2022-09-29T14:28:24;26.30;1.00
10453;DHT22;5274;51.992;8.518;2022-09-29T14:30:56;24.70;1.00
10453;DHT22;5274;51.992;8.518;2022-09-29T14:33:35;23.90;1.00
10453;DHT22;5274;51.992;8.518;2022-09-29T14:36:08;22.70;1.00
10453;DHT22;5274;51.992;8.518;2022-09-29T14:38:56;22.90;1.00
10453;DHT22;5274;51.992;8.518;2022-09-29T14:41:25;22.90;1.00
10453;DHT22;5274;51.992;8.518;2022-09-29T14:44:06;22.30;1.00
10453;DHT22;5274;51.992;8.518;2022-09-29T14:46:52;22.00;1.00
10453;DHT22;5274;51.992;8.518;2022-09-29T14:49:59;21.10;1.00
10453;DHT22;5274;51.992;8.518;2022-09-29T14:53:06;20.60;1.00
10453;DHT22;5274;51.992;8.518;2022-09-29T14:58:11;20.90;1.00
10453;DHT22;5274;51.992;8.518;2022-09-29T15:03:35;20.50;1.00
10453;DHT22;5274;51.992;8.518;2022-09-29T15:06:21;20.60;1.00
10453;DHT22;5274;51.992;8.518;2022-09-29T15:09:20;20.70;1.00
10453;DHT22;5274;51.992;8.518;2022-09-29T15:11:54;20.00;1.00
10453;DHT22;5274;51.992;8.518;2022-09-29T15:14:27;19.70;1.00
10453;DHT22;5274;51.992;8.518;2022-09-29T15:16:56;19.80;1.00
10453;DHT22;5274;51.992;8.518;2022-09-29T15:19:36;18.90;1.00
10453;DHT22;5274;51.992;8.518;2022-09-29T15:25:04;17.90;1.00
10453;DHT22;5274;51.992;8.518;2022-09-29T15:27:33;17.80;1.00
10453;DHT22;5274;51.992;8.518;2022-09-29T15:29:59;18.10;1.00
10453;DHT22;5274;51.992;8.518;2022-09-29T15:32:27;18.00;1.00
10453;DHT22;5274;51.992;8.518;2022-09-29T15:35:01;17.80;1.00
10453;DHT22;5274;51.992;8.518;2022-09-29T15:40:22;17.50;1.00
10453;DHT22;5274;51.992;8.518;2022-09-29T15:42:49;17.30;1.00
10453;DHT22;5274;51.992;8.518;2022-09-29T15:45:24;17.30;1.00
10453;DHT22;5274;51.992;8.518;2022-09-29T15:48:03;17.30;1.00
10453;DHT22;5274;51.992;8.518;2022-09-29T15:50:31;17.00;1.00
10453;DHT22;5274;51.992;8.518;2022-09-29T15:52:58;17.00;1.00
10453;DHT22;5274;51.992;8.518;2022-09-29T15:55:28;16.60;1.00
10453;DHT22;5274;51.992;8.518;2022-09-29T15:57:54;17.00;1.00
10453;DHT22;5274;51.992;8.518;2022-09-29T16:05:30;18.90;1.00
10453;DHT22;5274;51.992;8.518;2022-09-29T16:08:02;19.20;1.00
10453;DHT22;5274;51.992;8.518;2022-09-29T16:10:40;19.70;1.00
10453;DHT22;5274;51.992;8.518;2022-09-29T16:13:19;18.90;1.00
10453;DHT22;5274;51.992;8.518;2022-09-29T16:15:48;18.90;1.00
10453;DHT22;5274;51.992;8.518;2022-09-29T16:21:05;19.30;1.00
10453;DHT22;5274;51.992;8.518;2022-09-29T16:23:39;19.30;1.00
10453;DHT22;5274;51.992;8.518;2022-09-29T16:28:32;18.60;1.00
10453;DHT22;5274;51.992;8.518;2022-09-29T16:31:16;18.70;1.00
10453;DHT22;5274;51.992;8.518;2022-09-29T16:33:46;18.50;1.00
10453;DHT22;5274;51.992;8.518;2022-09-29T16:36:20;18.30;1.00
10453;DHT22;5274;51.992;8.518;2022-09-29T16:38:47;17.90;1.00
10453;DHT22;5274;51.992;8.518;2022-09-29T16:41:25;17.50;1.00
10453;DHT22;5274;51.992;8.518;2022-09-29T16:49:23;16.20;1.00
10453;DHT22;5274;51.992;8.518;2022-09-29T16:51:51;16.10;1.00
10453;DHT22;5274;51.992;8.518;2022-09-29T16:54:27;15.90;1.00
10453;DHT22;5274;51.992;8.518;2022-09-29T16:59:44;15.50;12.20
10453;DHT22;5274;51.992;8.518;2022-09-29T17:02:11;15.10;36.40
10453;DHT22;5274;51.992;8.518;2022-09-29T17:04:37;15.10;80.70
10453;DHT22;5274;51.992;8.518;2022-09-29T17:07:02;14.90;99.90
10453;DHT22;5274;51.992;8.518;2022-09-29T17:09:28;14.80;99.90
10453;DHT22;5274;51.992;8.518;2022-09-29T17:11:54;14.50;99.90
10453;DHT22;5274;51.992;8.518;2022-09-29T17:14:20;14.40;99.90
10453;DHT22;5274;51.992;8.518;2022-09-29T17:16:48;14.30;99.90
10453;DHT22;5274;51.992;8.518;2022-09-29T17:19:18;14.00;99.90
10453;DHT22;5274;51.992;8.518;2022-09-29T17:21:44;13.90;99.90
10453;DHT22;5274;51.992;8.518;2022-09-29T17:24:10;13.70;99.90
10453;DHT22;5274;51.992;8.518;2022-09-29T17:26:44;13.60;99.90
10453;DHT22;5274;51.992;8.518;2022-09-29T17:29:28;13.40;99.90
10453;DHT22;5274;51.992;8.518;2022-09-29T17:31:54;13.20;99.90
10453;DHT22;5274;51.992;8.518;2022-09-29T17:34:20;13.00;99.90
10453;DHT22;5274;51.992;8.518;2022-09-29T17:36:53;12.90;99.90
10453;DHT22;5274;51.992;8.518;2022-09-29T17:39:19;12.70;99.90
10453;DHT22;5274;51.992;8.518;2022-09-29T17:41:46;12.60;99.90
10453;DHT22;5274;51.992;8.518;2022-09-29T17:44:13;12.40;99.90
10453;DHT22;5274;51.992;8.518;2022-09-29T17:46:39;12.30;1.00
10453;DHT22;5274;51.992;8.518;2022-09-29T17:49:11;12.20;1.00
10453;DHT22;5274;51.992;8.518;2022-09-29T17:51:37;12.10;1.00
10453;DHT22;5274;51.992;8.518;2022-09-29T17:54:03;11.90;1.00
10453;DHT22;5274;51.992;8.518;2022-09-29T17:56:29;11.80;1.00
10453;DHT22;5274;51.992;8.518;2022-09-29T17:59:02;11.60;1.00
10453;DHT22;5274;51.992;8.518;2022-09-29T18:01:30;11.50;99.90
10453;DHT22;5274;51.992;8.518;2022-09-29T18:03:59;11.30;99.90
10453;DHT22;5274;51.992;8.518;2022-09-29T18:06:25;11.20;99.90
10453;DHT22;5274;51.992;8.518;2022-09-29T18:08:52;11.00;1.00
10453;DHT22;5274;51.992;8.518;2022-09-29T18:11:20;11.00;1.00
10453;DHT22;5274;51.992;8.518;2022-09-29T18:13:46;10.80;99.90
10453;DHT22;5274;51.992;8.518;2022-09-29T18:16:17;10.70;99.90
10453;DHT22;5274;51.992;8.518;2022-09-29T18:18:43;10.60;28.30
10453;DHT22;5274;51.992;8.518;2022-09-29T18:21:10;10.50;1.00
10453;DHT22;5274;51.992;8.518;2022-09-29T18:23:35;10.30;95.70
10453;DHT22;5274;51.992;8.518;2022-09-29T18:26:02;10.20;1.00
10453;DHT22;5274;51.992;8.518;2022-09-29T18:28:28;10.10;1.00
10453;DHT22;5274;51.992;8.518;2022-09-29T18:31:01;10.00;99.90
10453;DHT22;5274;51.992;8.518;2022-09-29T18:33:29;9.90;1.00
10453;DHT22;5274;51.992;8.518;2022-09-29T18:35:55;9.80;1.00
10453;DHT22;5274;51.992;8.518;2022-09-29T18:38:21;9.70;1.00
10453;DHT22;5274;51.992;8.518;2022-09-29T18:40:48;9.60;99.90
10453;DHT22;5274;51.992;8.518;2022-09-29T18:43:15;9.50;1.00
10453;DHT22;5274;51.992;8.518;2022-09-29T18:45:42;9.40;1.00
10453;DHT22;5274;51.992;8.518;2022-09-29T18:48:11;9.30;99.90
10453;DHT22;5274;51.992;8.518;2022-09-29T18:50:41;9.30;1.00